sensor_id;sensor_type;location;lat;lon;timestamp;temperature;humidity
51825;DHT22;37879;52.986;6.282;2023-08-06T00:00:17;14.30;99.90
51825;DHT22;37879;52.986;6.282;2023-08-06T00:02:42;14.30;99.90
51825;DHT22;37879;52.986;6.282;2023-08-06T00:05:08;14.30;99.90
51825;DHT22;37879;52.986;6.282;2023-08-06T00:07:33;14.30;99.90
51825;DHT22;37879;52.986;6.282;2023-08-06T00:09:59;14.30;99.90
51825;DHT22;37879;52.986;6.282;2023-08-06T00:12:25;14.30;99.90
51825;DHT22;37879;52.986;6.282;2023-08-06T00:14:51;14.30;99.90
51825;DHT22;37879;52.986;6.282;2023-08-06T00:17:17;14.30;99.90
51825;DHT22;37879;52.986;6.282;2023-08-06T00:19:43;14.30;99.90
51825;DHT22;37879;52.986;6.282;2023-08-06T00:22:08;14.20;99.90
51825;DHT22;37879;52.986;6.282;2023-08-06T00:24:35;14.20;99.90
51825;DHT22;37879;52.986;6.282;2023-08-06T00:27:01;14.20;99.90
51825;DHT22;37879;52.986;6.282;2023-08-06T00:29:26;14.20;99.90
51825;DHT22;37879;52.986;6.282;2023-08-06T00:31:52;14.30;99.90
51825;DHT22;37879;52.986;6.282;2023-08-06T00:34:18;14.20;99.90
51825;DHT22;37879;52.986;6.282;2023-08-06T00:36:43;14.20;99.90
51825;DHT22;37879;52.986;6.282;2023-08-06T00:39:09;14.20;99.90
51825;DHT22;37879;52.986;6.282;2023-08-06T00:41:35;14.20;99.90
51825;DHT22;37879;52.986;6.282;2023-08-06T00:44:00;14.30;99.90
51825;DHT22;37879;52.986;6.282;2023-08-06T00:46:26;14.30;99.90
51825;DHT22;37879;52.986;6.282;2023-08-06T00:48:52;14.30;99.90
51825;DHT22;37879;52.986;6.282;2023-08-06T00:51:18;14.30;99.90
51825;DHT22;37879;52.986;6.282;2023-08-06T00:53:44;14.20;99.90
51825;DHT22;37879;52.986;6.282;2023-08-06T00:56:10;14.20;99.90
51825;DHT22;37879;52.986;6.282;2023-08-06T00:58:37;14.20;99.90
51825;DHT22;37879;52.986;6.282;2023-08-06T01:01:03;14.20;99.90
51825;DHT22;37879;52.986;6.282;2023-08-06T01:03:29;14.20;99.90
51825;DHT22;37879;52.986;6.282;2023-08-06T01:05:55;14.20;99.90
51825;DHT22;37879;52.986;6.282;2023-08-06T01:11:14;14.20;99.90
51825;DHT22;37879;52.986;6.282;2023-08-06T01:13:47;14.20;99.90
51825;DHT22;37879;52.986;6.282;2023-08-06T01:16:20;14.20;99.90
51825;DHT22;37879;52.986;6.282;2023-08-06T01:18:47;14.20;99.90
51825;DHT22;37879;52.986;6.282;2023-08-06T01:21:15;14.20;99.90
51825;DHT22;37879;52.986;6.282;2023-08-06T01:23:42;14.20;99.90
51825;DHT22;37879;52.986;6.282;2023-08-06T01:26:29;14.20;99.90
51825;DHT22;37879;52.986;6.282;2023-08-06T01:31:32;14.20;99.90
51825;DHT22;37879;52.986;6.282;2023-08-06T01:34:00;14.40;99.90
51825;DHT22;37879;52.986;6.282;2023-08-06T01:36:27;14.10;99.90
51825;DHT22;37879;52.986;6.282;2023-08-06T01:38:53;14.20;99.90
51825;DHT22;37879;52.986;6.282;2023-08-06T01:41:19;14.20;99.90
51825;DHT22;37879;52.986;6.282;2023-08-06T01:43:45;14.20;99.90
51825;DHT22;37879;52.986;6.282;2023-08-06T01:46:11;14.20;99.90
51825;DHT22;37879;52.986;6.282;2023-08-06T01:48:36;14.20;99.90
51825;DHT22;37879;52.986;6.282;2023-08-06T01:51:05;14.10;99.90
51825;DHT22;37879;52.986;6.282;2023-08-06T01:53:31;14.20;99.90
51825;DHT22;37879;52.986;6.282;2023-08-06T01:55:57;14.10;99.90
51825;DHT22;37879;52.986;6.282;2023-08-06T01:58:23;14.10;99.90
51825;DHT22;37879;52.986;6.282;2023-08-06T02:00:49;14.10;99.90
51825;DHT22;37879;52.986;6.282;2023-08-06T02:03:15;14.10;99.90
51825;DHT22;37879;52.986;6.282;2023-08-06T02:05:41;14.10;99.90
51825;DHT22;37879;52.986;6.282;2023-08-06T02:08:06;14.10;99.90
51825;DHT22;37879;52.986;6.282;2023-08-06T02:10:32;14.10;99.90
51825;DHT22;37879;52.986;6.282;2023-08-06T02:12:58;14.10;99.90
51825;DHT22;37879;52.986;6.282;2023-08-06T02:15:23;14.10;99.90
51825;DHT22;37879;52.986;6.282;2023-08-06T02:17:49;14.10;99.90
51825;DHT22;37879;52.986;6.282;2023-08-06T02:20:15;14.10;99.90
51825;DHT22;37879;52.986;6.282;2023-08-06T02:22:40;14.10;99.90
51825;DHT22;37879;52.986;6.282;2023-08-06T02:25:06;14.00;99.90
51825;DHT22;37879;52.986;6.282;2023-08-06T02:27:32;14.10;99.90
51825;DHT22;37879;52.986;6.282;2023-08-06T02:29:57;14.00;99.90
51825;DHT22;37879;52.986;6.282;2023-08-06T02:32:23;14.10;99.90
51825;DHT22;37879;52.986;6.282;2023-08-06T02:34:48;14.00;99.90
51825;DHT22;37879;52.986;6.282;2023-08-06T02:37:14;14.10;99.90
51825;DHT22;37879;52.986;6.282;2023-08-06T02:39:40;14.00;99.90
51825;DHT22;37879;52.986;6.282;2023-08-06T02:42:07;14.00;99.90
51825;DHT22;37879;52.986;6.282;2023-08-06T02:44:33;14.00;99.90
51825;DHT22;37879;52.986;6.282;2023-08-06T02:46:59;14.00;99.90
51825;DHT22;37879;52.986;6.282;2023-08-06T02:49:25;14.10;99.90
51825;DHT22;37879;52.986;6.282;2023-08-06T02:51:51;14.00;99.90
51825;DHT22;37879;52.986;6.282;2023-08-06T02:54:20;14.10;99.90
51825;DHT22;37879;52.986;6.282;2023-08-06T02:56:46;14.10;99.90
51825;DHT22;37879;52.986;6.282;2023-08-06T02:59:12;14.00;99.90
51825;DHT22;37879;52.986;6.282;2023-08-06T03:01:38;14.00;99.90
51825;DHT22;37879;52.986;6.282;2023-08-06T03:04:04;14.00;99.90
51825;DHT22;37879;52.986;6.282;2023-08-06T03:06:30;14.00;99.90
51825;DHT22;37879;52.986;6.282;2023-08-06T03:08:55;14.20;99.90
51825;DHT22;37879;52.986;6.282;2023-08-06T03:11:21;14.10;99.90
51825;DHT22;37879;52.986;6.282;2023-08-06T03:13:47;13.90;99.90
51825;DHT22;37879;52.986;6.282;2023-08-06T03:16:13;14.10;99.90
51825;DHT22;37879;52.986;6.282;2023-08-06T03:18:39;13.90;99.90
51825;DHT22;37879;52.986;6.282;2023-08-06T03:21:04;13.90;99.90
51825;DHT22;37879;52.986;6.282;2023-08-06T03:23:30;13.90;99.90
51825;DHT22;37879;52.986;6.282;2023-08-06T03:25:55;13.90;99.90
51825;DHT22;37879;52.986;6.282;2023-08-06T03:28:21;13.90;99.90
51825;DHT22;37879;52.986;6.282;2023-08-06T03:30:47;13.90;99.90
51825;DHT22;37879;52.986;6.282;2023-08-06T03:33:13;13.90;99.90
51825;DHT22;37879;52.986;6.282;2023-08-06T03:35:39;13.90;99.90
51825;DHT22;37879;52.986;6.282;2023-08-06T03:38:05;13.90;99.90
51825;DHT22;37879;52.986;6.282;2023-08-06T03:40:31;13.90;99.90
51825;DHT22;37879;52.986;6.282;2023-08-06T03:42:56;13.90;99.90
51825;DHT22;37879;52.986;6.282;2023-08-06T03:45:22;13.90;99.90
51825;DHT22;37879;52.986;6.282;2023-08-06T03:47:48;13.90;99.90
51825;DHT22;37879;52.986;6.282;2023-08-06T03:50:13;13.90;99.90
51825;DHT22;37879;52.986;6.282;2023-08-06T03:52:39;13.90;99.90
51825;DHT22;37879;52.986;6.282;2023-08-06T03:55:05;14.00;99.90
51825;DHT22;37879;52.986;6.282;2023-08-06T03:57:30;14.00;99.90
51825;DHT22;37879;52.986;6.282;2023-08-06T03:59:56;14.00;99.90
51825;DHT22;37879;52.986;6.282;2023-08-06T04:02:22;14.10;99.90
51825;DHT22;37879;52.986;6.282;2023-08-06T04:04:48;14.00;99.90
51825;DHT22;37879;52.986;6.282;2023-08-06T04:07:14;14.00;99.90
51825;DHT22;37879;52.986;6.282;2023-08-06T04:10:01;14.00;99.90
51825;DHT22;37879;52.986;6.282;2023-08-06T04:12:27;14.00;99.90
51825;DHT22;37879;52.986;6.282;2023-08-06T04:14:53;14.00;99.90
51825;DHT22;37879;52.986;6.282;2023-08-06T04:17:23;14.00;99.90
51825;DHT22;37879;52.986;6.282;2023-08-06T04:19:53;14.10;99.90
51825;DHT22;37879;52.986;6.282;2023-08-06T04:22:20;14.10;99.90
51825;DHT22;37879;52.986;6.282;2023-08-06T04:24:46;14.00;99.90
51825;DHT22;37879;52.986;6.282;2023-08-06T04:27:13;14.00;99.90
51825;DHT22;37879;52.986;6.282;2023-08-06T04:29:39;14.10;99.90
51825;DHT22;37879;52.986;6.282;2023-08-06T04:32:07;14.10;99.90
51825;DHT22;37879;52.986;6.282;2023-08-06T04:34:34;14.10;99.90
51825;DHT22;37879;52.986;6.282;2023-08-06T04:37:00;14.10;99.90
51825;DHT22;37879;52.986;6.282;2023-08-06T04:39:26;14.10;99.90
51825;DHT22;37879;52.986;6.282;2023-08-06T04:41:51;14.10;99.90
51825;DHT22;37879;52.986;6.282;2023-08-06T04:44:17;14.10;99.90
51825;DHT22;37879;52.986;6.282;2023-08-06T04:46:42;14.10;99.90
51825;DHT22;37879;52.986;6.282;2023-08-06T04:49:08;14.10;99.90
51825;DHT22;37879;52.986;6.282;2023-08-06T04:51:34;14.10;99.90
51825;DHT22;37879;52.986;6.282;2023-08-06T04:54:00;14.10;99.90
51825;DHT22;37879;52.986;6.282;2023-08-06T04:56:25;14.20;99.90
51825;DHT22;37879;52.986;6.282;2023-08-06T04:58:51;14.20;99.90
51825;DHT22;37879;52.986;6.282;2023-08-06T05:01:16;14.20;99.90
51825;DHT22;37879;52.986;6.282;2023-08-06T05:03:42;14.20;99.90
51825;DHT22;37879;52.986;6.282;2023-08-06T05:06:08;14.20;99.90
51825;DHT22;37879;52.986;6.282;2023-08-06T05:08:34;14.20;99.90
51825;DHT22;37879;52.986;6.282;2023-08-06T05:10:59;14.20;99.90
51825;DHT22;37879;52.986;6.282;2023-08-06T05:13:25;14.30;99.90
51825;DHT22;37879;52.986;6.282;2023-08-06T05:15:53;14.30;99.90
51825;DHT22;37879;52.986;6.282;2023-08-06T05:18:19;14.30;99.90
51825;DHT22;37879;52.986;6.282;2023-08-06T05:20:44;14.30;99.90
51825;DHT22;37879;52.986;6.282;2023-08-06T05:23:10;14.30;99.90
51825;DHT22;37879;52.986;6.282;2023-08-06T05:25:37;14.40;99.90
51825;DHT22;37879;52.986;6.282;2023-08-06T05:28:03;14.40;99.90
51825;DHT22;37879;52.986;6.282;2023-08-06T05:30:29;14.50;99.90
51825;DHT22;37879;52.986;6.282;2023-08-06T05:32:54;14.50;99.90
51825;DHT22;37879;52.986;6.282;2023-08-06T05:35:21;14.50;99.90
51825;DHT22;37879;52.986;6.282;2023-08-06T05:37:47;14.60;99.90
51825;DHT22;37879;52.986;6.282;2023-08-06T05:40:13;14.60;99.90
51825;DHT22;37879;52.986;6.282;2023-08-06T05:42:39;14.70;99.90
51825;DHT22;37879;52.986;6.282;2023-08-06T05:45:05;14.70;99.90
51825;DHT22;37879;52.986;6.282;2023-08-06T05:47:31;14.70;99.90
51825;DHT22;37879;52.986;6.282;2023-08-06T05:49:57;14.80;99.90
51825;DHT22;37879;52.986;6.282;2023-08-06T05:52:23;14.80;99.90
51825;DHT22;37879;52.986;6.282;2023-08-06T05:54:48;14.90;99.90
51825;DHT22;37879;52.986;6.282;2023-08-06T05:57:14;14.90;99.90
51825;DHT22;37879;52.986;6.282;2023-08-06T05:59:40;15.00;99.90
51825;DHT22;37879;52.986;6.282;2023-08-06T06:02:06;15.00;99.90
51825;DHT22;37879;52.986;6.282;2023-08-06T06:04:32;15.10;99.90
51825;DHT22;37879;52.986;6.282;2023-08-06T06:06:58;15.00;99.90
51825;DHT22;37879;52.986;6.282;2023-08-06T06:09:23;15.10;99.90
51825;DHT22;37879;52.986;6.282;2023-08-06T06:11:49;15.10;99.90
51825;DHT22;37879;52.986;6.282;2023-08-06T06:14:16;15.20;99.90
51825;DHT22;37879;52.986;6.282;2023-08-06T06:16:42;15.20;99.90
51825;DHT22;37879;52.986;6.282;2023-08-06T06:19:08;15.20;99.90
51825;DHT22;37879;52.986;6.282;2023-08-06T06:21:33;15.30;99.90
51825;DHT22;37879;52.986;6.282;2023-08-06T06:23:59;15.50;99.90
51825;DHT22;37879;52.986;6.282;2023-08-06T06:26:25;15.60;99.90
51825;DHT22;37879;52.986;6.282;2023-08-06T06:28:50;15.80;99.90
51825;DHT22;37879;52.986;6.282;2023-08-06T06:31:16;15.90;99.90
51825;DHT22;37879;52.986;6.282;2023-08-06T06:33:42;16.00;99.90
51825;DHT22;37879;52.986;6.282;2023-08-06T06:36:07;16.10;99.90
51825;DHT22;37879;52.986;6.282;2023-08-06T06:38:34;16.10;99.90
51825;DHT22;37879;52.986;6.282;2023-08-06T06:40:59;16.30;99.90
51825;DHT22;37879;52.986;6.282;2023-08-06T06:43:25;16.40;99.90
51825;DHT22;37879;52.986;6.282;2023-08-06T06:45:58;16.50;99.90
51825;DHT22;37879;52.986;6.282;2023-08-06T06:48:28;16.60;99.90
51825;DHT22;37879;52.986;6.282;2023-08-06T06:50:54;16.70;99.90
51825;DHT22;37879;52.986;6.282;2023-08-06T06:53:20;16.70;99.90
51825;DHT22;37879;52.986;6.282;2023-08-06T06:55:45;16.70;99.90
51825;DHT22;37879;52.986;6.282;2023-08-06T06:58:15;16.60;99.90
51825;DHT22;37879;52.986;6.282;2023-08-06T07:00:41;16.60;99.90
51825;DHT22;37879;52.986;6.282;2023-08-06T07:03:07;16.60;99.90
51825;DHT22;37879;52.986;6.282;2023-08-06T07:05:33;16.50;99.90
51825;DHT22;37879;52.986;6.282;2023-08-06T07:07:58;16.50;99.90
51825;DHT22;37879;52.986;6.282;2023-08-06T07:10:25;16.60;99.90
51825;DHT22;37879;52.986;6.282;2023-08-06T07:12:51;16.60;99.90
51825;DHT22;37879;52.986;6.282;2023-08-06T07:15:17;16.70;99.90
51825;DHT22;37879;52.986;6.282;2023-08-06T07:17:43;16.70;99.90
51825;DHT22;37879;52.986;6.282;2023-08-06T07:20:09;16.60;99.90
51825;DHT22;37879;52.986;6.282;2023-08-06T07:22:35;16.60;99.90
51825;DHT22;37879;52.986;6.282;2023-08-06T07:25:01;16.60;99.90
51825;DHT22;37879;52.986;6.282;2023-08-06T07:27:27;16.60;99.90
51825;DHT22;37879;52.986;6.282;2023-08-06T07:29:53;16.60;99.90
51825;DHT22;37879;52.986;6.282;2023-08-06T07:32:18;16.60;99.90
51825;DHT22;37879;52.986;6.282;2023-08-06T07:34:44;16.50;99.90
51825;DHT22;37879;52.986;6.282;2023-08-06T07:37:10;16.60;99.90
51825;DHT22;37879;52.986;6.282;2023-08-06T07:39:35;16.60;99.90
51825;DHT22;37879;52.986;6.282;2023-08-06T07:42:03;16.70;99.90
51825;DHT22;37879;52.986;6.282;2023-08-06T07:44:31;16.70;99.90
51825;DHT22;37879;52.986;6.282;2023-08-06T07:46:57;16.70;99.90
51825;DHT22;37879;52.986;6.282;2023-08-06T07:49:22;16.70;99.90
51825;DHT22;37879;52.986;6.282;2023-08-06T07:51:48;16.70;99.90
51825;DHT22;37879;52.986;6.282;2023-08-06T07:54:13;16.70;99.90
51825;DHT22;37879;52.986;6.282;2023-08-06T07:56:39;16.80;99.90
51825;DHT22;37879;52.986;6.282;2023-08-06T07:59:05;16.80;99.90
51825;DHT22;37879;52.986;6.282;2023-08-06T08:01:31;16.80;99.90
51825;DHT22;37879;52.986;6.282;2023-08-06T08:03:56;17.00;99.90
51825;DHT22;37879;52.986;6.282;2023-08-06T08:06:22;17.00;99.90
51825;DHT22;37879;52.986;6.282;2023-08-06T08:08:48;16.90;99.90
51825;DHT22;37879;52.986;6.282;2023-08-06T08:11:14;17.00;99.90
51825;DHT22;37879;52.986;6.282;2023-08-06T08:13:41;17.10;99.90
51825;DHT22;37879;52.986;6.282;2023-08-06T08:16:07;17.20;99.90
51825;DHT22;37879;52.986;6.282;2023-08-06T08:18:33;17.30;99.90
51825;DHT22;37879;52.986;6.282;2023-08-06T08:20:58;17.30;99.90
51825;DHT22;37879;52.986;6.282;2023-08-06T08:23:24;17.40;99.90
51825;DHT22;37879;52.986;6.282;2023-08-06T08:25:49;17.40;99.90
51825;DHT22;37879;52.986;6.282;2023-08-06T08:28:15;17.50;99.90
51825;DHT22;37879;52.986;6.282;2023-08-06T08:30:41;17.40;99.90
51825;DHT22;37879;52.986;6.282;2023-08-06T08:33:07;17.40;99.90
51825;DHT22;37879;52.986;6.282;2023-08-06T08:35:33;17.40;99.90
51825;DHT22;37879;52.986;6.282;2023-08-06T08:37:59;17.40;99.90
51825;DHT22;37879;52.986;6.282;2023-08-06T08:40:33;17.30;99.90
51825;DHT22;37879;52.986;6.282;2023-08-06T08:42:59;17.30;99.90
51825;DHT22;37879;52.986;6.282;2023-08-06T08:45:28;17.30;99.90
51825;DHT22;37879;52.986;6.282;2023-08-06T08:47:54;17.40;99.90
51825;DHT22;37879;52.986;6.282;2023-08-06T08:50:21;17.40;99.90
51825;DHT22;37879;52.986;6.282;2023-08-06T08:52:47;17.50;99.90
51825;DHT22;37879;52.986;6.282;2023-08-06T08:55:16;17.60;99.90
51825;DHT22;37879;52.986;6.282;2023-08-06T08:57:42;17.70;99.90
51825;DHT22;37879;52.986;6.282;2023-08-06T09:00:08;17.80;99.90
51825;DHT22;37879;52.986;6.282;2023-08-06T09:02:36;17.80;99.90
51825;DHT22;37879;52.986;6.282;2023-08-06T09:05:04;17.70;99.90
51825;DHT22;37879;52.986;6.282;2023-08-06T09:07:37;17.70;99.90
51825;DHT22;37879;52.986;6.282;2023-08-06T09:10:07;17.70;99.90
51825;DHT22;37879;52.986;6.282;2023-08-06T09:12:35;17.80;99.90
51825;DHT22;37879;52.986;6.282;2023-08-06T09:15:00;17.90;99.90
51825;DHT22;37879;52.986;6.282;2023-08-06T09:17:28;18.00;99.90
51825;DHT22;37879;52.986;6.282;2023-08-06T09:19:54;18.10;99.90
51825;DHT22;37879;52.986;6.282;2023-08-06T09:22:20;18.10;99.90
51825;DHT22;37879;52.986;6.282;2023-08-06T09:24:46;18.30;99.90
51825;DHT22;37879;52.986;6.282;2023-08-06T09:27:13;18.40;99.90
51825;DHT22;37879;52.986;6.282;2023-08-06T09:29:41;18.50;99.90
51825;DHT22;37879;52.986;6.282;2023-08-06T09:32:08;18.60;99.90
51825;DHT22;37879;52.986;6.282;2023-08-06T09:34:33;18.70;99.90
51825;DHT22;37879;52.986;6.282;2023-08-06T09:36:59;18.70;99.90
51825;DHT22;37879;52.986;6.282;2023-08-06T09:39:29;18.80;99.90
51825;DHT22;37879;52.986;6.282;2023-08-06T09:41:57;18.90;99.90
51825;DHT22;37879;52.986;6.282;2023-08-06T09:44:25;19.00;99.90
51825;DHT22;37879;52.986;6.282;2023-08-06T09:46:52;19.10;99.90
51825;DHT22;37879;52.986;6.282;2023-08-06T09:49:20;19.10;99.90
51825;DHT22;37879;52.986;6.282;2023-08-06T09:51:50;19.10;99.90
51825;DHT22;37879;52.986;6.282;2023-08-06T09:54:17;19.10;99.90
51825;DHT22;37879;52.986;6.282;2023-08-06T09:56:45;19.20;99.90
51825;DHT22;37879;52.986;6.282;2023-08-06T09:59:11;19.30;99.90
51825;DHT22;37879;52.986;6.282;2023-08-06T10:01:37;19.40;99.90
51825;DHT22;37879;52.986;6.282;2023-08-06T10:04:04;19.40;99.90
51825;DHT22;37879;52.986;6.282;2023-08-06T10:06:32;19.40;99.90
51825;DHT22;37879;52.986;6.282;2023-08-06T10:08:59;19.60;99.90
51825;DHT22;37879;52.986;6.282;2023-08-06T10:11:25;19.60;99.90
51825;DHT22;37879;52.986;6.282;2023-08-06T10:14:00;19.60;99.90
51825;DHT22;37879;52.986;6.282;2023-08-06T10:16:26;19.60;99.90
51825;DHT22;37879;52.986;6.282;2023-08-06T10:18:53;19.60;99.90
51825;DHT22;37879;52.986;6.282;2023-08-06T10:21:20;19.60;99.90
51825;DHT22;37879;52.986;6.282;2023-08-06T10:23:53;19.50;99.90
51825;DHT22;37879;52.986;6.282;2023-08-06T10:26:20;19.40;99.90
51825;DHT22;37879;52.986;6.282;2023-08-06T10:28:45;19.40;99.90
51825;DHT22;37879;52.986;6.282;2023-08-06T10:31:11;19.50;99.90
51825;DHT22;37879;52.986;6.282;2023-08-06T10:33:45;19.40;99.90
51825;DHT22;37879;52.986;6.282;2023-08-06T10:36:11;19.30;99.90
51825;DHT22;37879;52.986;6.282;2023-08-06T10:38:50;19.30;99.90
51825;DHT22;37879;52.986;6.282;2023-08-06T10:41:36;19.30;99.90
51825;DHT22;37879;52.986;6.282;2023-08-06T10:44:11;19.20;99.90
51825;DHT22;37879;52.986;6.282;2023-08-06T10:46:37;19.20;99.90
51825;DHT22;37879;52.986;6.282;2023-08-06T10:49:06;19.20;99.90
51825;DHT22;37879;52.986;6.282;2023-08-06T10:51:33;19.30;99.90
51825;DHT22;37879;52.986;6.282;2023-08-06T10:53:58;19.40;99.90
51825;DHT22;37879;52.986;6.282;2023-08-06T10:56:25;19.50;99.90
51825;DHT22;37879;52.986;6.282;2023-08-06T10:58:55;19.60;99.90
51825;DHT22;37879;52.986;6.282;2023-08-06T11:01:28;19.60;99.90
51825;DHT22;37879;52.986;6.282;2023-08-06T11:03:54;19.60;99.90
51825;DHT22;37879;52.986;6.282;2023-08-06T11:06:21;19.60;99.90
51825;DHT22;37879;52.986;6.282;2023-08-06T11:08:52;19.70;99.90
51825;DHT22;37879;52.986;6.282;2023-08-06T11:11:19;19.80;99.90
51825;DHT22;37879;52.986;6.282;2023-08-06T11:13:47;19.80;99.90
51825;DHT22;37879;52.986;6.282;2023-08-06T11:16:23;19.80;99.90
51825;DHT22;37879;52.986;6.282;2023-08-06T11:18:50;19.90;99.90
51825;DHT22;37879;52.986;6.282;2023-08-06T11:21:22;19.90;99.90
51825;DHT22;37879;52.986;6.282;2023-08-06T11:23:50;19.90;99.90
51825;DHT22;37879;52.986;6.282;2023-08-06T11:26:22;19.80;99.90
51825;DHT22;37879;52.986;6.282;2023-08-06T11:28:53;19.80;99.90
51825;DHT22;37879;52.986;6.282;2023-08-06T11:31:22;19.90;99.90
51825;DHT22;37879;52.986;6.282;2023-08-06T11:33:50;20.00;99.90
51825;DHT22;37879;52.986;6.282;2023-08-06T11:36:16;20.10;99.90
51825;DHT22;37879;52.986;6.282;2023-08-06T11:38:53;20.10;99.90
51825;DHT22;37879;52.986;6.282;2023-08-06T11:41:19;20.10;99.90
51825;DHT22;37879;52.986;6.282;2023-08-06T11:43:46;20.10;99.90
51825;DHT22;37879;52.986;6.282;2023-08-06T11:46:11;20.20;99.90
51825;DHT22;37879;52.986;6.282;2023-08-06T11:48:56;20.20;99.90
51825;DHT22;37879;52.986;6.282;2023-08-06T11:51:23;20.20;99.90
51825;DHT22;37879;52.986;6.282;2023-08-06T11:54:00;20.30;99.90
51825;DHT22;37879;52.986;6.282;2023-08-06T11:56:27;20.30;99.90
51825;DHT22;37879;52.986;6.282;2023-08-06T11:58:54;20.40;99.90
51825;DHT22;37879;52.986;6.282;2023-08-06T12:01:20;20.50;99.90
51825;DHT22;37879;52.986;6.282;2023-08-06T12:03:45;20.30;99.90
51825;DHT22;37879;52.986;6.282;2023-08-06T12:06:11;20.20;99.90
51825;DHT22;37879;52.986;6.282;2023-08-06T12:08:37;20.00;99.90
51825;DHT22;37879;52.986;6.282;2023-08-06T12:11:03;19.90;99.90
51825;DHT22;37879;52.986;6.282;2023-08-06T12:13:29;19.80;99.90
51825;DHT22;37879;52.986;6.282;2023-08-06T12:15:55;19.80;99.90
51825;DHT22;37879;52.986;6.282;2023-08-06T12:18:23;19.80;99.90
51825;DHT22;37879;52.986;6.282;2023-08-06T12:20:48;19.80;99.90
51825;DHT22;37879;52.986;6.282;2023-08-06T12:23:14;19.90;99.90
51825;DHT22;37879;52.986;6.282;2023-08-06T12:25:41;19.80;99.90
51825;DHT22;37879;52.986;6.282;2023-08-06T12:28:07;19.80;99.90
51825;DHT22;37879;52.986;6.282;2023-08-06T12:30:34;19.90;99.90
51825;DHT22;37879;52.986;6.282;2023-08-06T12:33:00;19.90;99.90
51825;DHT22;37879;52.986;6.282;2023-08-06T12:35:26;20.00;99.90
51825;DHT22;37879;52.986;6.282;2023-08-06T12:37:52;19.90;99.90
51825;DHT22;37879;52.986;6.282;2023-08-06T12:40:20;19.90;99.90
51825;DHT22;37879;52.986;6.282;2023-08-06T12:42:46;19.80;99.90
51825;DHT22;37879;52.986;6.282;2023-08-06T12:45:12;19.80;99.90
51825;DHT22;37879;52.986;6.282;2023-08-06T12:47:37;19.80;99.90
51825;DHT22;37879;52.986;6.282;2023-08-06T12:50:03;19.80;99.90
51825;DHT22;37879;52.986;6.282;2023-08-06T12:52:29;19.90;99.90
51825;DHT22;37879;52.986;6.282;2023-08-06T12:54:55;19.80;99.90
51825;DHT22;37879;52.986;6.282;2023-08-06T12:57:21;19.70;99.90
51825;DHT22;37879;52.986;6.282;2023-08-06T12:59:46;19.70;99.90
51825;DHT22;37879;52.986;6.282;2023-08-06T13:02:13;19.60;99.90
51825;DHT22;37879;52.986;6.282;2023-08-06T13:04:39;19.60;99.90
51825;DHT22;37879;52.986;6.282;2023-08-06T13:07:05;19.60;99.90
51825;DHT22;37879;52.986;6.282;2023-08-06T13:09:32;19.60;99.90
51825;DHT22;37879;52.986;6.282;2023-08-06T13:11:58;19.60;99.90
51825;DHT22;37879;52.986;6.282;2023-08-06T13:14:25;19.70;99.90
51825;DHT22;37879;52.986;6.282;2023-08-06T13:16:51;19.80;99.90
51825;DHT22;37879;52.986;6.282;2023-08-06T13:19:17;19.90;99.90
51825;DHT22;37879;52.986;6.282;2023-08-06T13:24:11;19.90;99.90
51825;DHT22;37879;52.986;6.282;2023-08-06T13:26:37;19.80;99.90
51825;DHT22;37879;52.986;6.282;2023-08-06T13:29:02;19.70;99.90
51825;DHT22;37879;52.986;6.282;2023-08-06T13:31:28;19.70;99.90
51825;DHT22;37879;52.986;6.282;2023-08-06T13:33:55;19.60;99.90
51825;DHT22;37879;52.986;6.282;2023-08-06T13:36:23;19.60;99.90
51825;DHT22;37879;52.986;6.282;2023-08-06T13:38:49;19.50;99.90
51825;DHT22;37879;52.986;6.282;2023-08-06T13:41:15;19.50;99.90
51825;DHT22;37879;52.986;6.282;2023-08-06T13:43:41;19.50;99.90
51825;DHT22;37879;52.986;6.282;2023-08-06T13:46:06;19.60;99.90
51825;DHT22;37879;52.986;6.282;2023-08-06T13:48:32;19.70;99.90
51825;DHT22;37879;52.986;6.282;2023-08-06T13:50:58;19.90;99.90
51825;DHT22;37879;52.986;6.282;2023-08-06T13:53:24;20.00;99.90
51825;DHT22;37879;52.986;6.282;2023-08-06T13:55:55;20.10;99.90
51825;DHT22;37879;52.986;6.282;2023-08-06T13:58:22;20.30;99.90
51825;DHT22;37879;52.986;6.282;2023-08-06T14:00:48;20.40;99.90
51825;DHT22;37879;52.986;6.282;2023-08-06T14:03:14;20.30;99.90
51825;DHT22;37879;52.986;6.282;2023-08-06T14:05:39;20.30;99.90
51825;DHT22;37879;52.986;6.282;2023-08-06T14:08:05;20.20;99.90
51825;DHT22;37879;52.986;6.282;2023-08-06T14:10:31;20.00;99.90
51825;DHT22;37879;52.986;6.282;2023-08-06T14:12:56;20.00;99.90
51825;DHT22;37879;52.986;6.282;2023-08-06T14:15:22;20.10;99.90
51825;DHT22;37879;52.986;6.282;2023-08-06T14:17:47;20.30;99.90
51825;DHT22;37879;52.986;6.282;2023-08-06T14:20:14;20.40;99.90
51825;DHT22;37879;52.986;6.282;2023-08-06T14:22:39;20.40;99.90
51825;DHT22;37879;52.986;6.282;2023-08-06T14:25:05;20.30;99.90
51825;DHT22;37879;52.986;6.282;2023-08-06T14:27:32;20.10;99.90
51825;DHT22;37879;52.986;6.282;2023-08-06T14:29:57;19.90;99.90
51825;DHT22;37879;52.986;6.282;2023-08-06T14:32:23;20.00;99.90
51825;DHT22;37879;52.986;6.282;2023-08-06T14:34:49;20.20;99.90
51825;DHT22;37879;52.986;6.282;2023-08-06T14:37:15;20.20;99.90
51825;DHT22;37879;52.986;6.282;2023-08-06T14:39:41;20.10;99.90
51825;DHT22;37879;52.986;6.282;2023-08-06T14:42:06;20.10;99.90
51825;DHT22;37879;52.986;6.282;2023-08-06T14:44:32;20.10;99.90
51825;DHT22;37879;52.986;6.282;2023-08-06T14:46:58;20.00;99.90
51825;DHT22;37879;52.986;6.282;2023-08-06T14:49:23;19.80;99.90
51825;DHT22;37879;52.986;6.282;2023-08-06T14:51:50;19.70;99.90
51825;DHT22;37879;52.986;6.282;2023-08-06T14:54:16;19.90;99.90
51825;DHT22;37879;52.986;6.282;2023-08-06T14:56:42;20.00;99.90
51825;DHT22;37879;52.986;6.282;2023-08-06T14:59:07;20.10;99.90
51825;DHT22;37879;52.986;6.282;2023-08-06T15:01:33;20.10;99.90
51825;DHT22;37879;52.986;6.282;2023-08-06T15:03:59;20.20;99.90
51825;DHT22;37879;52.986;6.282;2023-08-06T15:06:24;20.10;99.90
51825;DHT22;37879;52.986;6.282;2023-08-06T15:08:50;20.10;99.90
51825;DHT22;37879;52.986;6.282;2023-08-06T15:11:16;20.20;99.90
51825;DHT22;37879;52.986;6.282;2023-08-06T15:13:41;20.10;99.90
51825;DHT22;37879;52.986;6.282;2023-08-06T15:16:07;19.90;99.90
51825;DHT22;37879;52.986;6.282;2023-08-06T15:18:33;19.70;99.90
51825;DHT22;37879;52.986;6.282;2023-08-06T15:20:58;19.70;99.90
51825;DHT22;37879;52.986;6.282;2023-08-06T15:23:24;19.50;99.90
51825;DHT22;37879;52.986;6.282;2023-08-06T15:25:50;19.40;99.90
51825;DHT22;37879;52.986;6.282;2023-08-06T15:28:16;19.40;99.90
51825;DHT22;37879;52.986;6.282;2023-08-06T15:30:49;19.40;99.90
51825;DHT22;37879;52.986;6.282;2023-08-06T15:33:16;19.40;99.90